sensor_id;sensor_type;location;lat;lon;timestamp;pressure;altitude;pressure_sealevel;temperature;humidity
72330;BME280;69154;52.076;5.110;2023-05-19T00:00:29;102861.41;;;4.78;38.68
72330;BME280;69154;52.076;5.110;2023-05-19T00:02:55;102858.33;;;6.49;36.81
72330;BME280;69154;52.076;5.110;2023-05-19T00:05:20;102857.14;;;3.82;38.87
72330;BME280;69154;52.076;5.110;2023-05-19T00:07:46;102849.64;;;5.15;38.22
72330;BME280;69154;52.076;5.110;2023-05-19T00:10:11;102847.45;;;4.18;38.87
72330;BME280;69154;52.076;5.110;2023-05-19T00:12:37;102846.74;;;3.80;39.90
72330;BME280;69154;52.076;5.110;2023-05-19T00:15:01;102845.09;;;4.32;39.64
72330;BME280;69154;52.076;5.110;2023-05-19T00:17:26;102838.03;;;5.77;37.99
72330;BME280;69154;52.076;5.110;2023-05-19T00:19:51;102836.37;;;5.15;38.39
72330;BME280;69154;52.076;5.110;2023-05-19T00:22:17;102844.69;;;3.62;39.92
72330;BME280;69154;52.076;5.110;2023-05-19T00:24:42;102840.31;;;5.20;38.90
72330;BME280;69154;52.076;5.110;2023-05-19T00:27:07;102839.66;;;4.47;38.88
72330;BME280;69154;52.076;5.110;2023-05-19T00:29:33;102842.88;;;4.00;40.18
72330;BME280;69154;52.076;5.110;2023-05-19T00:31:58;102842.52;;;4.11;40.60
72330;BME280;69154;52.076;5.110;2023-05-19T00:34:24;102840.45;;;4.04;40.03
72330;BME280;69154;52.076;5.110;2023-05-19T00:36:49;102839.86;;;6.37;37.62
72330;BME280;69154;52.076;5.110;2023-05-19T00:39:14;102842.13;;;4.45;38.95
72330;BME280;69154;52.076;5.110;2023-05-19T00:41:39;102844.78;;;4.63;38.95
72330;BME280;69154;52.076;5.110;2023-05-19T00:44:06;102845.87;;;2.94;41.00
72330;BME280;69154;52.076;5.110;2023-05-19T00:46:30;102843.35;;;3.11;41.68
72330;BME280;69154;52.076;5.110;2023-05-19T00:48:56;102841.67;;;5.00;40.03
72330;BME280;69154;52.076;5.110;2023-05-19T00:51:21;102837.90;;;3.14;40.84
72330;BME280;69154;52.076;5.110;2023-05-19T00:53:47;102837.99;;;3.82;41.29
72330;BME280;69154;52.076;5.110;2023-05-19T00:56:11;102841.90;;;3.78;40.59
72330;BME280;69154;52.076;5.110;2023-05-19T00:58:37;102842.61;;;3.74;40.50
72330;BME280;69154;52.076;5.110;2023-05-19T01:01:02;102843.57;;;3.51;40.54
72330;BME280;69154;52.076;5.110;2023-05-19T01:03:29;102846.77;;;3.21;41.45
72330;BME280;69154;52.076;5.110;2023-05-19T01:05:53;102843.23;;;5.29;39.03
72330;BME280;69154;52.076;5.110;2023-05-19T01:08:18;102842.84;;;5.55;37.57
72330;BME280;69154;52.076;5.110;2023-05-19T01:10:44;102837.89;;;5.09;38.07
72330;BME280;69154;52.076;5.110;2023-05-19T01:13:09;102834.08;;;5.18;37.49
72330;BME280;69154;52.076;5.110;2023-05-19T01:15:55;102833.78;;;4.56;38.72
72330;BME280;69154;52.076;5.110;2023-05-19T01:18:04;102838.59;;;4.38;38.93
72330;BME280;69154;52.076;5.110;2023-05-19T01:20:32;102832.54;;;5.32;37.62
72330;BME280;69154;52.076;5.110;2023-05-19T01:23:10;102831.03;;;5.98;37.07
72330;BME280;69154;52.076;5.110;2023-05-19T01:25:31;102829.01;;;4.53;38.46
72330;BME280;69154;52.076;5.110;2023-05-19T01:27:51;102830.70;;;4.54;39.76
72330;BME280;69154;52.076;5.110;2023-05-19T01:30:25;102829.91;;;4.35;39.45
72330;BME280;69154;52.076;5.110;2023-05-19T01:32:32;102822.79;;;4.96;38.87
72330;BME280;69154;52.076;5.110;2023-05-19T01:34:57;102820.19;;;5.74;38.80
72330;BME280;69154;52.076;5.110;2023-05-19T01:37:23;102826.12;;;3.41;40.17
72330;BME280;69154;52.076;5.110;2023-05-19T01:39:48;102821.99;;;3.44;41.48
72330;BME280;69154;52.076;5.110;2023-05-19T01:42:13;102818.95;;;3.76;41.10
72330;BME280;69154;52.076;5.110;2023-05-19T01:44:38;102819.61;;;3.62;41.95
72330;BME280;69154;52.076;5.110;2023-05-19T01:47:04;102815.57;;;2.75;43.57
72330;BME280;69154;52.076;5.110;2023-05-19T01:49:29;102815.20;;;2.84;42.75
72330;BME280;69154;52.076;5.110;2023-05-19T01:51:55;102812.98;;;4.05;41.04
72330;BME280;69154;52.076;5.110;2023-05-19T01:54:20;102808.24;;;1.85;43.86
72330;BME280;69154;52.076;5.110;2023-05-19T01:56:53;102810.11;;;3.57;42.39
72330;BME280;69154;52.076;5.110;2023-05-19T01:59:19;102809.56;;;2.68;42.05
72330;BME280;69154;52.076;5.110;2023-05-19T02:01:44;102805.90;;;4.14;41.06
72330;BME280;69154;52.076;5.110;2023-05-19T02:04:12;102807.05;;;3.68;41.49
72330;BME280;69154;52.076;5.110;2023-05-19T02:06:32;102812.08;;;3.08;42.06
72330;BME280;69154;52.076;5.110;2023-05-19T02:08:57;102814.00;;;3.76;41.86
72330;BME280;69154;52.076;5.110;2023-05-19T02:11:21;102814.10;;;2.99;42.92
72330;BME280;69154;52.076;5.110;2023-05-19T02:13:48;102815.17;;;3.77;41.94
72330;BME280;69154;52.076;5.110;2023-05-19T02:16:10;102811.01;;;2.20;43.90
72330;BME280;69154;52.076;5.110;2023-05-19T02:18:35;102811.45;;;3.31;42.40
72330;BME280;69154;52.076;5.110;2023-05-19T02:21:00;102810.18;;;3.61;42.57
72330;BME280;69154;52.076;5.110;2023-05-19T02:23:26;102807.16;;;3.09;42.83
72330;BME280;69154;52.076;5.110;2023-05-19T02:25:51;102807.37;;;4.58;41.24
72330;BME280;69154;52.076;5.110;2023-05-19T02:28:16;102803.95;;;3.66;40.74
72330;BME280;69154;52.076;5.110;2023-05-19T02:30:41;102806.48;;;3.38;42.48
72330;BME280;69154;52.076;5.110;2023-05-19T02:33:06;102802.47;;;3.67;41.50
72330;BME280;69154;52.076;5.110;2023-05-19T02:35:31;102797.38;;;4.65;39.91
72330;BME280;69154;52.076;5.110;2023-05-19T02:37:57;102793.43;;;4.63;40.13
72330;BME280;69154;52.076;5.110;2023-05-19T02:40:22;102792.62;;;3.06;42.23
72330;BME280;69154;52.076;5.110;2023-05-19T02:42:47;102787.24;;;4.29;40.96
72330;BME280;69154;52.076;5.110;2023-05-19T02:45:12;102785.38;;;4.05;41.14
72330;BME280;69154;52.076;5.110;2023-05-19T02:47:37;102784.92;;;3.94;42.52
72330;BME280;69154;52.076;5.110;2023-05-19T02:50:04;102778.95;;;3.47;42.11
72330;BME280;69154;52.076;5.110;2023-05-19T02:52:28;102775.45;;;4.13;40.59
72330;BME280;69154;52.076;5.110;2023-05-19T02:54:53;102777.02;;;4.61;40.98
72330;BME280;69154;52.076;5.110;2023-05-19T02:57:19;102775.38;;;3.18;41.74
72330;BME280;69154;52.076;5.110;2023-05-19T02:59:44;102771.21;;;5.54;39.28
72330;BME280;69154;52.076;5.110;2023-05-19T03:02:10;102771.37;;;3.73;40.47
72330;BME280;69154;52.076;5.110;2023-05-19T03:04:35;102765.49;;;4.98;39.38
72330;BME280;69154;52.076;5.110;2023-05-19T03:07:00;102762.58;;;5.01;38.92
72330;BME280;69154;52.076;5.110;2023-05-19T03:09:25;102764.52;;;4.53;38.65
72330;BME280;69154;52.076;5.110;2023-05-19T03:11:51;102765.02;;;5.07;38.52
72330;BME280;69154;52.076;5.110;2023-05-19T03:14:22;102766.02;;;4.18;38.73
72330;BME280;69154;52.076;5.110;2023-05-19T03:16:41;102767.43;;;5.06;38.68
72330;BME280;69154;52.076;5.110;2023-05-19T03:19:07;102769.80;;;4.33;38.88
72330;BME280;69154;52.076;5.110;2023-05-19T03:21:32;102773.56;;;5.59;37.77
72330;BME280;69154;52.076;5.110;2023-05-19T03:23:57;102769.21;;;5.04;38.67
72330;BME280;69154;52.076;5.110;2023-05-19T03:26:22;102771.66;;;5.32;37.66
72330;BME280;69154;52.076;5.110;2023-05-19T03:28:48;102769.65;;;5.52;38.12
72330;BME280;69154;52.076;5.110;2023-05-19T03:31:14;102767.96;;;4.55;38.84
72330;BME280;69154;52.076;5.110;2023-05-19T03:33:39;102768.46;;;4.31;40.27
72330;BME280;69154;52.076;5.110;2023-05-19T03:36:06;102765.55;;;3.18;41.24
72330;BME280;69154;52.076;5.110;2023-05-19T03:38:31;102768.92;;;3.22;42.11
72330;BME280;69154;52.076;5.110;2023-05-19T03:40:57;102760.91;;;4.96;40.14
72330;BME280;69154;52.076;5.110;2023-05-19T03:43:22;102762.13;;;4.14;40.01
72330;BME280;69154;52.076;5.110;2023-05-19T03:45:47;102763.87;;;5.09;39.20
72330;BME280;69154;52.076;5.110;2023-05-19T03:48:12;102763.99;;;4.16;39.49
72330;BME280;69154;52.076;5.110;2023-05-19T03:50:38;102760.57;;;4.40;39.86
72330;BME280;69154;52.076;5.110;2023-05-19T03:53:03;102763.16;;;3.33;41.05
72330;BME280;69154;52.076;5.110;2023-05-19T03:55:29;102758.02;;;4.70;39.58
72330;BME280;69154;52.076;5.110;2023-05-19T03:57:54;102760.22;;;4.92;39.74
72330;BME280;69154;52.076;5.110;2023-05-19T04:00:19;102758.44;;;4.02;39.76
72330;BME280;69154;52.076;5.110;2023-05-19T04:02:45;102759.82;;;4.25;40.29
72330;BME280;69154;52.076;5.110;2023-05-19T04:05:10;102760.04;;;4.71;39.34
72330;BME280;69154;52.076;5.110;2023-05-19T04:07:35;102761.14;;;5.16;39.04
72330;BME280;69154;52.076;5.110;2023-05-19T04:10:03;102760.76;;;6.48;36.77
72330;BME280;69154;52.076;5.110;2023-05-19T04:12:27;102761.04;;;5.39;37.63
72330;BME280;69154;52.076;5.110;2023-05-19T04:14:52;102755.68;;;6.34;36.87
72330;BME280;69154;52.076;5.110;2023-05-19T04:17:17;102759.35;;;4.91;37.00
72330;BME280;69154;52.076;5.110;2023-05-19T04:19:43;102763.36;;;6.44;36.20
72330;BME280;69154;52.076;5.110;2023-05-19T04:22:08;102763.86;;;5.79;36.48
72330;BME280;69154;52.076;5.110;2023-05-19T04:24:33;102766.37;;;5.99;36.54
72330;BME280;69154;52.076;5.110;2023-05-19T04:26:59;102769.17;;;7.76;34.91
72330;BME280;69154;52.076;5.110;2023-05-19T04:29:24;102770.75;;;5.74;36.21
72330;BME280;69154;52.076;5.110;2023-05-19T04:31:50;102771.85;;;6.43;36.52
72330;BME280;69154;52.076;5.110;2023-05-19T04:34:15;102780.38;;;5.28;37.59
72330;BME280;69154;52.076;5.110;2023-05-19T04:36:40;102779.43;;;4.95;38.76
72330;BME280;69154;52.076;5.110;2023-05-19T04:39:06;102781.50;;;6.55;37.05
72330;BME280;69154;52.076;5.110;2023-05-19T04:41:31;102780.82;;;5.07;38.13
72330;BME280;69154;52.076;5.110;2023-05-19T04:43:57;102783.33;;;5.97;37.98
72330;BME280;69154;52.076;5.110;2023-05-19T04:46:22;102782.16;;;6.22;36.39
72330;BME280;69154;52.076;5.110;2023-05-19T04:48:47;102784.12;;;6.95;36.24
72330;BME280;69154;52.076;5.110;2023-05-19T04:51:12;102779.69;;;5.08;38.67
72330;BME280;69154;52.076;5.110;2023-05-19T04:53:37;102779.99;;;5.84;37.94
72330;BME280;69154;52.076;5.110;2023-05-19T04:56:03;102778.26;;;7.03;36.65
72330;BME280;69154;52.076;5.110;2023-05-19T04:58:28;102781.33;;;8.77;34.00
72330;BME280;69154;52.076;5.110;2023-05-19T05:00:53;102780.74;;;7.42;35.34
72330;BME280;69154;52.076;5.110;2023-05-19T05:03:19;102786.42;;;8.68;33.81
72330;BME280;69154;52.076;5.110;2023-05-19T05:05:44;102791.20;;;8.52;32.64
72330;BME280;69154;52.076;5.110;2023-05-19T05:08:10;102789.20;;;7.88;33.06
72330;BME280;69154;52.076;5.110;2023-05-19T05:10:34;102795.34;;;8.46;32.69
72330;BME280;69154;52.076;5.110;2023-05-19T05:13:00;102794.04;;;9.13;33.20
72330;BME280;69154;52.076;5.110;2023-05-19T05:15:26;102796.03;;;8.39;32.42
72330;BME280;69154;52.076;5.110;2023-05-19T05:17:52;102793.87;;;7.44;34.73
72330;BME280;69154;52.076;5.110;2023-05-19T05:20:17;102794.17;;;9.17;32.30
72330;BME280;69154;52.076;5.110;2023-05-19T05:22:43;102794.49;;;8.23;32.91
72330;BME280;69154;52.076;5.110;2023-05-19T05:25:09;102795.91;;;8.02;33.07
72330;BME280;69154;52.076;5.110;2023-05-19T05:27:33;102798.17;;;7.52;34.17
72330;BME280;69154;52.076;5.110;2023-05-19T05:29:58;102798.57;;;7.75;34.76
72330;BME280;69154;52.076;5.110;2023-05-19T05:32:23;102799.60;;;5.62;36.53
72330;BME280;69154;52.076;5.110;2023-05-19T05:34:49;102803.73;;;6.16;37.08
72330;BME280;69154;52.076;5.110;2023-05-19T05:37:14;102800.52;;;4.24;38.41
72330;BME280;69154;52.076;5.110;2023-05-19T05:39:40;102802.25;;;6.75;36.49
72330;BME280;69154;52.076;5.110;2023-05-19T05:42:06;102805.45;;;7.07;36.02
72330;BME280;69154;52.076;5.110;2023-05-19T05:44:31;102803.22;;;7.84;34.89
72330;BME280;69154;52.076;5.110;2023-05-19T05:46:57;102803.06;;;6.92;35.39
72330;BME280;69154;52.076;5.110;2023-05-19T05:49:22;102802.11;;;7.02;34.85
72330;BME280;69154;52.076;5.110;2023-05-19T05:51:47;102802.69;;;7.98;33.95
72330;BME280;69154;52.076;5.110;2023-05-19T05:54:13;102801.44;;;6.86;34.36
72330;BME280;69154;52.076;5.110;2023-05-19T05:56:38;102805.10;;;8.89;32.97
72330;BME280;69154;52.076;5.110;2023-05-19T05:59:03;102804.94;;;8.13;32.54
72330;BME280;69154;52.076;5.110;2023-05-19T06:01:29;102807.19;;;8.71;33.03
72330;BME280;69154;52.076;5.110;2023-05-19T06:03:54;102807.89;;;8.46;32.31
72330;BME280;69154;52.076;5.110;2023-05-19T06:06:19;102806.52;;;7.97;32.86
72330;BME280;69154;52.076;5.110;2023-05-19T06:08:44;102800.88;;;10.09;31.40
72330;BME280;69154;52.076;5.110;2023-05-19T06:11:09;102804.27;;;9.72;30.65
72330;BME280;69154;52.076;5.110;2023-05-19T06:13:35;102809.96;;;7.77;32.24
72330;BME280;69154;52.076;5.110;2023-05-19T06:16:00;102807.61;;;8.91;31.74
72330;BME280;69154;52.076;5.110;2023-05-19T06:18:25;102803.99;;;8.38;31.65
72330;BME280;69154;52.076;5.110;2023-05-19T06:20:50;102798.07;;;9.69;31.25
72330;BME280;69154;52.076;5.110;2023-05-19T06:23:15;102796.79;;;9.69;30.23
72330;BME280;69154;52.076;5.110;2023-05-19T06:25:41;102792.67;;;10.62;30.09
72330;BME280;69154;52.076;5.110;2023-05-19T06:28:06;102793.36;;;10.37;28.64
72330;BME280;69154;52.076;5.110;2023-05-19T06:30:31;102788.78;;;9.90;30.26
72330;BME280;69154;52.076;5.110;2023-05-19T06:32:57;102788.73;;;9.60;29.88
72330;BME280;69154;52.076;5.110;2023-05-19T06:35:22;102789.25;;;9.45;30.37
72330;BME280;69154;52.076;5.110;2023-05-19T06:37:48;102787.79;;;10.32;29.42
72330;BME280;69154;52.076;5.110;2023-05-19T06:40:13;102785.97;;;9.15;30.47
72330;BME280;69154;52.076;5.110;2023-05-19T06:42:38;102780.69;;;9.63;29.75
72330;BME280;69154;52.076;5.110;2023-05-19T06:45:05;102782.58;;;8.91;31.03
72330;BME280;69154;52.076;5.110;2023-05-19T06:47:29;102784.54;;;8.58;31.65
72330;BME280;69154;52.076;5.110;2023-05-19T06:49:55;102787.90;;;9.10;31.14
72330;BME280;69154;52.076;5.110;2023-05-19T06:52:21;102789.79;;;9.88;29.15
72330;BME280;69154;52.076;5.110;2023-05-19T06:54:46;102788.63;;;8.77;30.68
72330;BME280;69154;52.076;5.110;2023-05-19T06:57:12;102791.50;;;9.07;30.00
72330;BME280;69154;52.076;5.110;2023-05-19T06:59:37;102793.66;;;9.59;30.12
72330;BME280;69154;52.076;5.110;2023-05-19T07:02:02;102794.21;;;8.69;30.81
72330;BME280;69154;52.076;5.110;2023-05-19T07:04:27;102795.97;;;8.00;31.52
72330;BME280;69154;52.076;5.110;2023-05-19T07:06:52;102793.41;;;10.83;29.58
72330;BME280;69154;52.076;5.110;2023-05-19T07:09:18;102793.48;;;8.28;30.20
72330;BME280;69154;52.076;5.110;2023-05-19T07:11:43;102791.76;;;11.56;28.31
72330;BME280;69154;52.076;5.110;2023-05-19T07:14:08;102788.16;;;9.67;29.56
72330;BME280;69154;52.076;5.110;2023-05-19T07:16:33;102789.11;;;12.95;27.28
72330;BME280;69154;52.076;5.110;2023-05-19T07:18:59;102795.74;;;13.11;26.47
72330;BME280;69154;52.076;5.110;2023-05-19T07:21:24;102795.39;;;13.09;25.42
72330;BME280;69154;52.076;5.110;2023-05-19T07:23:49;102789.78;;;15.62;23.88
72330;BME280;69154;52.076;5.110;2023-05-19T07:26:15;102790.32;;;14.84;23.47
72330;BME280;69154;52.076;5.110;2023-05-19T07:28:40;102788.79;;;14.72;23.85
72330;BME280;69154;52.076;5.110;2023-05-19T07:31:05;102788.91;;;16.31;22.32
72330;BME280;69154;52.076;5.110;2023-05-19T07:33:30;102785.65;;;13.64;24.08
72330;BME280;69154;52.076;5.110;2023-05-19T07:35:56;102787.10;;;14.71;24.41
72330;BME280;69154;52.076;5.110;2023-05-19T07:38:21;102792.87;;;11.91;24.78
72330;BME280;69154;52.076;5.110;2023-05-19T07:40:47;102791.98;;;13.09;24.29
72330;BME280;69154;52.076;5.110;2023-05-19T07:43:12;102789.38;;;13.11;23.99
72330;BME280;69154;52.076;5.110;2023-05-19T07:45:37;102784.48;;;12.01;25.59
72330;BME280;69154;52.076;5.110;2023-05-19T07:48:02;102782.91;;;11.78;25.89
72330;BME280;69154;52.076;5.110;2023-05-19T07:50:27;102783.00;;;9.55;27.69
72330;BME280;69154;52.076;5.110;2023-05-19T07:52:52;102777.48;;;12.59;26.77
72330;BME280;69154;52.076;5.110;2023-05-19T07:55:18;102780.37;;;11.67;26.04
72330;BME280;69154;52.076;5.110;2023-05-19T07:57:44;102779.93;;;14.86;23.73
72330;BME280;69154;52.076;5.110;2023-05-19T08:00:10;102783.37;;;13.10;24.40
72330;BME280;69154;52.076;5.110;2023-05-19T08:02:34;102778.40;;;14.93;23.38
72330;BME280;69154;52.076;5.110;2023-05-19T08:04:59;102775.63;;;15.13;22.82
72330;BME280;69154;52.076;5.110;2023-05-19T08:07:24;102774.77;;;15.22;23.03
72330;BME280;69154;52.076;5.110;2023-05-19T08:09:49;102771.73;;;16.86;21.77
72330;BME280;69154;52.076;5.110;2023-05-19T08:12:14;102770.41;;;17.37;22.20
72330;BME280;69154;52.076;5.110;2023-05-19T08:14:39;102769.12;;;17.90;20.51
72330;BME280;69154;52.076;5.110;2023-05-19T08:17:04;102767.01;;;17.71;20.72
72330;BME280;69154;52.076;5.110;2023-05-19T08:19:29;102760.60;;;16.59;20.97
72330;BME280;69154;52.076;5.110;2023-05-19T08:21:55;102757.89;;;18.21;20.89
72330;BME280;69154;52.076;5.110;2023-05-19T08:24:20;102751.97;;;14.80;21.89
72330;BME280;69154;52.076;5.110;2023-05-19T08:26:45;102748.42;;;15.06;23.84
72330;BME280;69154;52.076;5.110;2023-05-19T08:29:10;102749.26;;;13.62;24.08
72330;BME280;69154;52.076;5.110;2023-05-19T08:31:35;102749.04;;;14.63;22.23
72330;BME280;69154;52.076;5.110;2023-05-19T08:34:00;102745.87;;;14.87;23.08
72330;BME280;69154;52.076;5.110;2023-05-19T08:36:25;102745.75;;;14.40;22.82
72330;BME280;69154;52.076;5.110;2023-05-19T08:38:50;102742.60;;;15.15;22.93
72330;BME280;69154;52.076;5.110;2023-05-19T08:41:15;102736.99;;;15.78;22.19
72330;BME280;69154;52.076;5.110;2023-05-19T08:43:41;102734.89;;;14.74;22.03
72330;BME280;69154;52.076;5.110;2023-05-19T08:46:06;102728.76;;;13.08;23.02
72330;BME280;69154;52.076;5.110;2023-05-19T08:48:32;102726.89;;;13.20;23.29
72330;BME280;69154;52.076;5.110;2023-05-19T08:51:04;102725.10;;;14.10;22.80
72330;BME280;69154;52.076;5.110;2023-05-19T08:53:22;102725.39;;;13.07;22.91
72330;BME280;69154;52.076;5.110;2023-05-19T08:55:57;102722.20;;;11.91;24.66
72330;BME280;69154;52.076;5.110;2023-05-19T08:58:11;102725.19;;;11.28;24.62
72330;BME280;69154;52.076;5.110;2023-05-19T09:00:36;102721.30;;;12.38;24.02
72330;BME280;69154;52.076;5.110;2023-05-19T09:03:02;102723.43;;;11.04;25.12
72330;BME280;69154;52.076;5.110;2023-05-19T09:05:27;102719.23;;;10.25;25.83
72330;BME280;69154;52.076;5.110;2023-05-19T09:07:51;102722.67;;;13.38;23.96
72330;BME280;69154;52.076;5.110;2023-05-19T09:10:17;102722.33;;;12.18;24.44
72330;BME280;69154;52.076;5.110;2023-05-19T09:12:43;102718.43;;;14.00;22.15
72330;BME280;69154;52.076;5.110;2023-05-19T09:15:08;102720.23;;;13.24;22.57
72330;BME280;69154;52.076;5.110;2023-05-19T09:17:32;102724.20;;;13.04;23.03
72330;BME280;69154;52.076;5.110;2023-05-19T09:20:00;102720.11;;;13.74;22.01
72330;BME280;69154;52.076;5.110;2023-05-19T09:22:22;102718.25;;;14.27;21.31
72330;BME280;69154;52.076;5.110;2023-05-19T09:24:48;102720.20;;;14.83;21.21
72330;BME280;69154;52.076;5.110;2023-05-19T09:27:14;102723.32;;;13.09;22.12
72330;BME280;69154;52.076;5.110;2023-05-19T09:29:37;102727.66;;;12.29;22.72
72330;BME280;69154;52.076;5.110;2023-05-19T09:32:02;102727.16;;;12.56;23.29
72330;BME280;69154;52.076;5.110;2023-05-19T09:34:28;102722.05;;;16.05;20.67
72330;BME280;69154;52.076;5.110;2023-05-19T09:36:54;102720.74;;;22.00;16.61
72330;BME280;69154;52.076;5.110;2023-05-19T09:39:21;102715.30;;;23.99;15.15
72330;BME280;69154;52.076;5.110;2023-05-19T09:41:46;102711.67;;;24.21;13.90
72330;BME280;69154;52.076;5.110;2023-05-19T09:44:12;102705.53;;;26.35;13.32
72330;BME280;69154;52.076;5.110;2023-05-19T09:46:37;102703.83;;;21.46;13.90
72330;BME280;69154;52.076;5.110;2023-05-19T09:49:07;102699.98;;;19.09;15.46
72330;BME280;69154;52.076;5.110;2023-05-19T09:51:28;102706.10;;;18.35;15.57
72330;BME280;69154;52.076;5.110;2023-05-19T09:53:53;102706.17;;;18.63;16.03
72330;BME280;69154;52.076;5.110;2023-05-19T09:56:19;102705.31;;;19.30;15.97
72330;BME280;69154;52.076;5.110;2023-05-19T09:58:45;102700.39;;;24.61;14.28
72330;BME280;69154;52.076;5.110;2023-05-19T10:01:10;102701.61;;;24.53;12.58
72330;BME280;69154;52.076;5.110;2023-05-19T10:03:37;102695.89;;;24.79;11.78
72330;BME280;69154;52.076;5.110;2023-05-19T10:06:03;102692.23;;;24.94;12.04
72330;BME280;69154;52.076;5.110;2023-05-19T10:08:28;102691.63;;;20.85;12.92
72330;BME280;69154;52.076;5.110;2023-05-19T10:10:53;102687.95;;;21.36;13.88
72330;BME280;69154;52.076;5.110;2023-05-19T10:13:20;102688.48;;;20.19;13.90
72330;BME280;69154;52.076;5.110;2023-05-19T10:15:45;102694.24;;;20.59;14.61
72330;BME280;69154;52.076;5.110;2023-05-19T10:18:10;102691.55;;;18.28;15.40
72330;BME280;69154;52.076;5.110;2023-05-19T10:20:35;102682.25;;;21.12;15.02
72330;BME280;69154;52.076;5.110;2023-05-19T10:23:01;102688.04;;;21.00;15.34
72330;BME280;69154;52.076;5.110;2023-05-19T10:25:27;102683.20;;;22.81;14.78
72330;BME280;69154;52.076;5.110;2023-05-19T10:27:56;102683.15;;;22.35;14.11
72330;BME280;69154;52.076;5.110;2023-05-19T10:30:22;102677.96;;;23.93;12.70
72330;BME280;69154;52.076;5.110;2023-05-19T10:32:45;102675.15;;;22.16;13.73
72330;BME280;69154;52.076;5.110;2023-05-19T10:35:34;102676.67;;;21.29;13.94
72330;BME280;69154;52.076;5.110;2023-05-19T10:37:53;102675.76;;;24.51;12.87
72330;BME280;69154;52.076;5.110;2023-05-19T10:40:17;102671.13;;;23.07;12.84
72330;BME280;69154;52.076;5.110;2023-05-19T10:42:40;102664.19;;;23.20;12.83
72330;BME280;69154;52.076;5.110;2023-05-19T10:45:08;102667.86;;;16.24;15.89
72330;BME280;69154;52.076;5.110;2023-05-19T10:47:28;102660.42;;;20.88;14.13
72330;BME280;69154;52.076;5.110;2023-05-19T10:49:54;102660.60;;;24.73;13.66
72330;BME280;69154;52.076;5.110;2023-05-19T10:52:20;102658.76;;;22.81;13.09
72330;BME280;69154;52.076;5.110;2023-05-19T10:54:45;102654.81;;;19.42;15.06
72330;BME280;69154;52.076;5.110;2023-05-19T10:57:13;102656.62;;;22.55;14.83
72330;BME280;69154;52.076;5.110;2023-05-19T10:59:36;102653.45;;;21.71;13.75
72330;BME280;69154;52.076;5.110;2023-05-19T11:02:03;102660.79;;;22.26;14.42
72330;BME280;69154;52.076;5.110;2023-05-19T11:04:38;102656.27;;;22.36;13.28
72330;BME280;69154;52.076;5.110;2023-05-19T11:06:53;102649.87;;;25.14;12.39
72330;BME280;69154;52.076;5.110;2023-05-19T11:09:18;102658.43;;;21.90;13.00
72330;BME280;69154;52.076;5.110;2023-05-19T11:11:46;102652.14;;;26.69;11.56
72330;BME280;69154;52.076;5.110;2023-05-19T11:14:10;102652.80;;;27.12;11.44
72330;BME280;69154;52.076;5.110;2023-05-19T11:16:35;102644.50;;;27.33;11.07
72330;BME280;69154;52.076;5.110;2023-05-19T11:19:01;102640.34;;;28.15;11.22
72330;BME280;69154;52.076;5.110;2023-05-19T11:21:40;102637.36;;;25.85;10.64
72330;BME280;69154;52.076;5.110;2023-05-19T11:23:52;102630.92;;;22.26;13.99
72330;BME280;69154;52.076;5.110;2023-05-19T11:26:39;102642.36;;;21.33;13.75
72330;BME280;69154;52.076;5.110;2023-05-19T11:28:43;102643.45;;;17.67;16.36
72330;BME280;69154;52.076;5.110;2023-05-19T11:31:09;102642.92;;;18.06;16.20
72330;BME280;69154;52.076;5.110;2023-05-19T11:33:34;102642.63;;;19.02;15.80
72330;BME280;69154;52.076;5.110;2023-05-19T11:36:00;102640.87;;;24.39;12.49
72330;BME280;69154;52.076;5.110;2023-05-19T11:38:27;102637.01;;;23.27;13.42
72330;BME280;69154;52.076;5.110;2023-05-19T11:40:52;102633.54;;;24.40;12.23
72330;BME280;69154;52.076;5.110;2023-05-19T11:43:17;102630.99;;;23.25;13.07
72330;BME280;69154;52.076;5.110;2023-05-19T11:45:42;102626.06;;;27.04;11.48
72330;BME280;69154;52.076;5.110;2023-05-19T11:48:10;102623.92;;;23.79;11.87
72330;BME280;69154;52.076;5.110;2023-05-19T11:50:33;102625.98;;;23.42;13.70
72330;BME280;69154;52.076;5.110;2023-05-19T11:52:59;102620.72;;;27.14;11.60
72330;BME280;69154;52.076;5.110;2023-05-19T11:55:24;102619.55;;;26.00;11.27
72330;BME280;69154;52.076;5.110;2023-05-19T11:57:55;102624.36;;;28.73;10.63
72330;BME280;69154;52.076;5.110;2023-05-19T12:00:15;102623.96;;;26.63;11.12
72330;BME280;69154;52.076;5.110;2023-05-19T12:02:41;102619.83;;;24.80;11.49
72330;BME280;69154;52.076;5.110;2023-05-19T12:05:17;102619.88;;;27.49;10.34
72330;BME280;69154;52.076;5.110;2023-05-19T12:07:32;102616.58;;;29.36;10.16
72330;BME280;69154;52.076;5.110;2023-05-19T12:09:58;102617.50;;;27.08;12.24
72330;BME280;69154;52.076;5.110;2023-05-19T12:12:23;102619.37;;;22.10;12.26
72330;BME280;69154;52.076;5.110;2023-05-19T12:14:50;102612.46;;;23.93;13.54
72330;BME280;69154;52.076;5.110;2023-05-19T12:17:16;102609.69;;;25.62;11.60
72330;BME280;69154;52.076;5.110;2023-05-19T12:19:40;102604.36;;;31.01;10.38
72330;BME280;69154;52.076;5.110;2023-05-19T12:22:06;102605.64;;;22.96;12.99
72330;BME280;69154;52.076;5.110;2023-05-19T12:24:31;102597.50;;;25.53;11.51
72330;BME280;69154;52.076;5.110;2023-05-19T12:27:04;102599.78;;;25.88;11.85
72330;BME280;69154;52.076;5.110;2023-05-19T12:29:26;102600.30;;;26.83;11.96
72330;BME280;69154;52.076;5.110;2023-05-19T12:31:47;102590.81;;;25.69;11.73
72330;BME280;69154;52.076;5.110;2023-05-19T12:34:13;102596.99;;;19.86;13.94
72330;BME280;69154;52.076;5.110;2023-05-19T12:36:40;102595.96;;;21.21;14.70
72330;BME280;69154;52.076;5.110;2023-05-19T12:39:04;102596.69;;;18.54;15.54
72330;BME280;69154;52.076;5.110;2023-05-19T12:41:29;102592.31;;;18.20;15.97
72330;BME280;69154;52.076;5.110;2023-05-19T12:43:55;102590.33;;;19.23;16.52